Time;durP1;ratioP1;P1;durP2;ratioP2;P2;SDS_P1;SDS_P2;PMS_P1;PMS_P2;Temp;Humidity;BMP_temperature;BMP_pressure;BME280_temperature;BME280_humidity;BME280_pressure;Samples;Min_cycle;Max_cycle;Signal;HPM_P1;HPM_P2
2023/12/28 00:01:35;;;;;;;6.03;5.82;;;;;;;;;;6139844;28;20497;-92
2023/12/28 00:04:36;;;;;;;5.38;5.18;;;;;;;;;;6155440;28;20051;-93
2023/12/28 00:07:38;;;;;;;5.47;5.28;;;;;;;;;;6155604;28;20050;-92
2023/12/28 00:10:40;;;;;;;4.53;4.43;;;;;;;;;;6159120;28;20053;-93
2023/12/28 00:13:42;;;;;;;5.18;4.97;;;;;;;;;;6163095;28;20047;-92
2023/12/28 00:16:44;;;;;;;4.38;4.28;;;;;;;;;;6162614;28;20038;-93
2023/12/28 00:19:46;;;;;;;4.50;4.40;;;;;;;;;;6164340;28;20130;-94
2023/12/28 00:22:49;;;;;;;5.53;5.32;;;;;;;;;;6158804;28;20055;-92
2023/12/28 00:25:50;;;;;;;5.15;4.78;;;;;;;;;;6164513;28;20046;-91
2023/12/28 00:28:52;;;;;;;4.40;4.30;;;;;;;;;;6161802;28;20054;-91
2023/12/28 00:31:54;;;;;;;5.55;5.25;;;;;;;;;;6139515;28;20129;-92
2023/12/28 00:34:57;;;;;;;4.78;4.65;;;;;;;;;;6158558;28;20050;-93
2023/12/28 00:37:58;;;;;;;4.90;4.80;;;;;;;;;;6157318;28;20163;-91
2023/12/28 00:41:02;;;;;;;5.43;5.22;;;;;;;;;;6163298;28;20042;-92
2023/12/28 00:44:05;;;;;;;5.13;4.93;;;;;;;;;;6160574;28;20062;-92
2023/12/28 00:47:07;;;;;;;4.97;4.88;;;;;;;;;;6163107;28;20134;-90
2023/12/28 00:50:11;;;;;;;4.78;4.68;;;;;;;;;;6161741;28;20038;-91
2023/12/28 00:53:13;;;;;;;6.07;5.88;;;;;;;;;;6161971;28;20057;-91
2023/12/28 00:56:14;;;;;;;6.22;5.80;;;;;;;;;;6160193;28;20042;-90
2023/12/28 00:59:16;;;;;;;5.65;5.35;;;;;;;;;;6158041;28;20092;-90
2023/12/28 01:02:17;;;;;;;4.80;4.70;;;;;;;;;;6159190;28;20046;-90
2023/12/28 01:05:20;;;;;;;5.22;5.03;;;;;;;;;;6159278;28;20175;-89
2023/12/28 01:08:22;;;;;;;5.03;4.82;;;;;;;;;;6160150;28;20043;-87
2023/12/28 01:11:24;;;;;;;5.40;5.20;;;;;;;;;;6161913;28;20056;-87
2023/12/28 01:14:26;;;;;;;5.57;5.38;;;;;;;;;;6161481;28;20097;-87
2023/12/28 01:17:28;;;;;;;4.57;4.47;;;;;;;;;;6157687;28;20048;-87
2023/12/28 01:20:30;;;;;;;5.15;4.97;;;;;;;;;;6161084;28;20031;-87
2023/12/28 01:23:32;;;;;;;5.28;5.07;;;;;;;;;;6161294;28;20516;-87
2023/12/28 01:26:34;;;;;;;5.28;5.07;;;;;;;;;;6165907;28;20546;-88
2023/12/28 01:29:36;;;;;;;5.82;5.63;;;;;;;;;;6161835;28;20553;-89
2023/12/28 01:32:38;;;;;;;4.80;4.70;;;;;;;;;;6159531;28;20450;-89
2023/12/28 01:35:41;;;;;;;5.40;5.20;;;;;;;;;;6164943;28;20043;-89
2023/12/28 01:38:43;;;;;;;5.18;4.97;;;;;;;;;;6163406;28;20043;-90
2023/12/28 01:41:46;;;;;;;4.60;4.50;;;;;;;;;;6165486;28;20043;-89
2023/12/28 01:44:48;;;;;;;4.80;4.60;;;;;;;;;;6163491;28;20406;-90
2023/12/28 01:47:50;;;;;;;5.47;5.28;;;;;;;;;;6165469;28;20073;-89
2023/12/28 01:50:52;;;;;;;7.03;6.82;;;;;;;;;;6162773;28;20042;-90
2023/12/28 01:53:55;;;;;;;6.22;5.82;;;;;;;;;;6142780;28;20548;-90
2023/12/28 01:56:57;;;;;;;5.05;4.90;;;;;;;;;;6164425;28;20093;-90
2023/12/28 02:00:01;;;;;;;5.35;5.15;;;;;;;;;;6175830;28;20197;-90
2023/12/28 02:03:13;;;;;;;5.55;5.35;;;;;;;;;;6166118;28;20055;-90
2023/12/28 02:06:18;;;;;;;5.50;5.30;;;;;;;;;;6166746;28;20055;-90
2023/12/28 02:09:20;;;;;;;5.68;5.47;;;;;;;;;;6160799;28;20050;-90
2023/12/28 02:12:22;;;;;;;5.22;5.03;;;;;;;;;;6154775;28;20222;-91
2023/12/28 02:15:24;;;;;;;5.47;5.28;;;;;;;;;;6166266;28;20042;-92
2023/12/28 02:18:30;;;;;;;5.63;5.43;;;;;;;;;;6162784;28;20061;-92
2023/12/28 02:21:33;;;;;;;5.75;5.47;;;;;;;;;;6161997;28;20493;-91
2023/12/28 02:24:54;;;;;;;6.20;6.00;;;;;;;;;;6164676;28;20416;-91
2023/12/28 02:27:55;;;;;;;5.80;5.53;;;;;;;;;;6165885;28;20049;-92
2023/12/28 02:31:01;;;;;;;5.28;5.07;;;;;;;;;;6166902;28;20038;-92
2023/12/28 02:34:12;;;;;;;5.00;4.85;;;;;;;;;;6166018;28;20123;-92
2023/12/28 02:37:16;;;;;;;5.20;5.00;;;;;;;;;;6165650;28;20122;-92
2023/12/28 02:40:18;;;;;;;5.20;5.03;;;;;;;;;;6156265;28;20144;-93
2023/12/28 02:43:20;;;;;;;5.45;5.25;;;;;;;;;;6166157;28;20069;-93
2023/12/28 02:46:21;;;;;;;4.90;4.70;;;;;;;;;;6166694;28;20047;-93
2023/12/28 02:49:23;;;;;;;5.97;5.78;;;;;;;;;;6165099;28;20059;-92
2023/12/28 02:52:25;;;;;;;5.55;5.35;;;;;;;;;;6163055;28;20527;-93
2023/12/28 02:55:26;;;;;;;5.82;5.63;;;;;;;;;;6167389;28;20053;-93
2023/12/28 02:58:28;;;;;;;5.38;5.18;;;;;;;;;;6166575;28;20053;-93
2023/12/28 03:01:30;;;;;;;5.47;5.28;;;;;;;;;;6155769;28;20051;-92
2023/12/28 03:04:32;;;;;;;6.43;6.13;;;;;;;;;;6158515;28;20041;-93
2023/12/28 03:07:34;;;;;;;5.45;5.25;;;;;;;;;;6148096;28;20061;-94
2023/12/28 03:10:35;;;;;;;4.88;4.72;;;;;;;;;;6166410;28;20042;-93
2023/12/28 03:13:37;;;;;;;5.07;4.88;;;;;;;;;;6160696;28;20043;-94
2023/12/28 03:16:39;;;;;;;5.18;4.85;;;;;;;;;;6165469;28;20133;-93
2023/12/28 03:19:41;;;;;;;5.45;5.25;;;;;;;;;;6162696;28;20046;-92
2023/12/28 03:22:43;;;;;;;5.47;5.25;;;;;;;;;;6160174;28;20294;-93
2023/12/28 03:25:44;;;;;;;5.20;5.00;;;;;;;;;;6162966;28;20109;-92
2023/12/28 03:28:46;;;;;;;7.18;6.72;;;;;;;;;;6156189;28;20079;-92
2023/12/28 03:31:48;;;;;;;6.45;6.25;;;;;;;;;;6152710;28;20524;-93
2023/12/28 03:34:50;;;;;;;5.43;5.22;;;;;;;;;;6163525;28;20054;-93
2023/12/28 03:37:52;;;;;;;5.93;5.72;;;;;;;;;;6162320;28;20572;-94
2023/12/28 03:40:55;;;;;;;5.45;5.25;;;;;;;;;;6159531;28;20042;-92
2023/12/28 03:43:56;;;;;;;5.78;5.57;;;;;;;;;;6162120;28;20050;-94
2023/12/28 03:46:58;;;;;;;5.07;4.90;;;;;;;;;;6162061;28;20201;-93
2023/12/28 03:50:00;;;;;;;5.35;5.18;;;;;;;;;;6164251;28;20045;-92
2023/12/28 03:53:02;;;;;;;4.95;4.75;;;;;;;;;;6165356;28;20038;-93
2023/12/28 03:56:04;;;;;;;4.80;4.65;;;;;;;;;;6163039;28;20112;-93
2023/12/28 03:59:07;;;;;;;5.00;4.80;;;;;;;;;;6160752;28;20039;-92
2023/12/28 04:02:09;;;;;;;5.57;5.38;;;;;;;;;;6164231;28;20497;-92
2023/12/28 04:05:11;;;;;;;5.90;5.68;;;;;;;;;;6162665;28;20153;-94
2023/12/28 04:08:13;;;;;;;5.40;5.20;;;;;;;;;;6163968;28;20054;-93
2023/12/28 04:11:15;;;;;;;5.22;5.07;;;;;;;;;;6162913;28;20050;-92
2023/12/28 04:14:17;;;;;;;4.50;4.40;;;;;;;;;;6152211;28;20047;-93
2023/12/28 04:17:19;;;;;;;5.53;5.32;;;;;;;;;;6162663;28;20451;-92
2023/12/28 04:20:21;;;;;;;5.05;4.95;;;;;;;;;;6155561;28;20042;-93
2023/12/28 04:23:25;;;;;;;4.90;4.80;;;;;;;;;;6155454;28;20061;-93
2023/12/28 04:26:26;;;;;;;5.15;4.95;;;;;;;;;;6162534;28;20405;-94
2023/12/28 04:29:28;;;;;;;6.05;5.75;;;;;;;;;;6154065;28;20051;-93
2023/12/28 04:32:31;;;;;;;5.95;5.75;;;;;;;;;;6163594;28;20523;-94
2023/12/28 04:35:34;;;;;;;4.88;4.78;;;;;;;;;;6140874;28;20065;-94
2023/12/28 04:38:36;;;;;;;5.00;4.88;;;;;;;;;;6140204;28;20055;-94
2023/12/28 04:41:38;;;;;;;5.15;4.97;;;;;;;;;;6158842;28;20047;-94
2023/12/28 04:44:40;;;;;;;5.38;5.13;;;;;;;;;;6163400;28;20061;-94
2023/12/28 04:47:42;;;;;;;5.28;5.07;;;;;;;;;;6155003;28;20058;-93
2023/12/28 04:50:43;;;;;;;4.95;4.75;;;;;;;;;;6158273;28;20046;-94
2023/12/28 04:53:46;;;;;;;4.93;4.82;;;;;;;;;;6160021;28;20117;-94
2023/12/28 04:56:49;;;;;;;4.93;4.80;;;;;;;;;;6159367;28;20053;-92
2023/12/28 04:59:51;;;;;;;5.32;5.00;;;;;;;;;;6161478;28;20122;-93
2023/12/28 05:02:53;;;;;;;4.85;4.65;;;;;;;;;;6158407;28;20050;-95
2023/12/28 05:05:55;;;;;;;4.65;4.55;;;;;;;;;;6179077;28;20100;-93
2023/12/28 05:08:57;;;;;;;5.13;4.93;;;;;;;;;;6163161;28;20401;-94
2023/12/28 05:11:59;;;;;;;5.15;4.95;;;;;;;;;;6161846;28;20173;-94
2023/12/28 05:15:01;;;;;;;4.50;4.40;;;;;;;;;;6160654;28;20050;-93
2023/12/28 05:18:03;;;;;;;5.13;4.93;;;;;;;;;;6160696;28;20602;-96
2023/12/28 05:21:06;;;;;;;5.60;5.40;;;;;;;;;;6157096;28;20043;-94
2023/12/28 05:24:08;;;;;;;4.55;4.45;;;;;;;;;;6165923;28;20508;-95
2023/12/28 05:27:11;;;;;;;4.70;4.60;;;;;;;;;;6161813;28;20042;-95
2023/12/28 05:30:12;;;;;;;5.50;5.30;;;;;;;;;;6163354;28;20043;-94
2023/12/28 05:33:14;;;;;;;5.53;5.22;;;;;;;;;;6162455;28;20508;-94
2023/12/28 05:36:16;;;;;;;5.20;5.00;;;;;;;;;;6158727;28;20039;-95
2023/12/28 05:39:18;;;;;;;4.90;4.80;;;;;;;;;;6156759;28;20043;-95
2023/12/28 05:42:20;;;;;;;5.05;4.85;;;;;;;;;;6163780;28;20317;-94
2023/12/28 05:45:22;;;;;;;4.57;4.47;;;;;;;;;;6163819;28;20043;-95
2023/12/28 05:48:24;;;;;;;5.63;5.43;;;;;;;;;;6155450;28;20035;-95
2023/12/28 05:51:27;;;;;;;4.95;4.85;;;;;;;;;;6157565;28;20043;-95
2023/12/28 05:54:28;;;;;;;4.53;4.43;;;;;;;;;;6162702;28;20050;-95
2023/12/28 05:57:31;;;;;;;4.60;4.47;;;;;;;;;;6157054;28;20050;-96
2023/12/28 06:00:33;;;;;;;6.00;5.70;;;;;;;;;;6150222;28;20042;-96
2023/12/28 06:03:35;;;;;;;4.22;4.13;;;;;;;;;;6156918;28;20796;-95
2023/12/28 06:06:37;;;;;;;4.78;4.30;;;;;;;;;;6158684;28;20720;-95
2023/12/28 06:09:39;;;;;;;4.55;4.45;;;;;;;;;;6165415;28;20063;-95
2023/12/28 06:12:41;;;;;;;4.82;4.72;;;;;;;;;;6164829;28;20424;-95
2023/12/28 06:15:43;;;;;;;4.20;4.10;;;;;;;;;;6164098;28;20042;-93
2023/12/28 06:18:45;;;;;;;4.18;4.07;;;;;;;;;;6164335;28;20057;-95
2023/12/28 06:21:49;;;;;;;5.07;4.88;;;;;;;;;;6164397;28;20491;-95
2023/12/28 06:24:51;;;;;;;5.15;4.88;;;;;;;;;;6161571;28;20043;-95
2023/12/28 06:27:53;;;;;;;4.65;4.55;;;;;;;;;;6169621;28;20070;-95
2023/12/28 06:30:59;;;;;;;5.93;5.53;;;;;;;;;;6163738;28;20038;-95
2023/12/28 06:34:02;;;;;;;5.18;5.00;;;;;;;;;;6165004;28;20561;-95
2023/12/28 06:37:05;;;;;;;4.55;4.45;;;;;;;;;;6163835;28;20055;-94
2023/12/28 06:40:08;;;;;;;4.43;4.32;;;;;;;;;;6160715;28;20104;-94
2023/12/28 06:43:10;;;;;;;4.57;4.47;;;;;;;;;;6162408;28;20039;-95
2023/12/28 06:46:12;;;;;;;4.13;4.03;;;;;;;;;;6162117;28;20049;-94
2023/12/28 06:49:14;;;;;;;4.57;4.47;;;;;;;;;;6169134;28;20191;-94
2023/12/28 06:52:16;;;;;;;4.43;4.22;;;;;;;;;;6166603;28;20043;-93
2023/12/28 06:55:18;;;;;;;5.10;4.95;;;;;;;;;;6165274;28;20093;-94
2023/12/28 06:58:20;;;;;;;5.28;5.05;;;;;;;;;;6167316;28;20077;-92
2023/12/28 07:01:22;;;;;;;4.55;4.45;;;;;;;;;;6165826;28;20057;-94
2023/12/28 07:04:26;;;;;;;4.68;4.55;;;;;;;;;;6168231;28;20045;-95
2023/12/28 07:07:28;;;;;;;4.10;4.00;;;;;;;;;;6166993;28;20049;-94
2023/12/28 07:10:30;;;;;;;4.78;4.68;;;;;;;;;;6166480;28;20035;-94
2023/12/28 07:13:32;;;;;;;4.47;4.35;;;;;;;;;;6163191;28;20057;-94
2023/12/28 07:16:34;;;;;;;4.47;4.35;;;;;;;;;;6159026;28;20159;-94
2023/12/28 07:19:35;;;;;;;5.53;5.25;;;;;;;;;;6162532;28;20086;-94
2023/12/28 07:22:38;;;;;;;5.18;4.93;;;;;;;;;;6161029;28;20373;-94
2023/12/28 07:25:41;;;;;;;4.72;4.53;;;;;;;;;;6157597;28;20536;-94
2023/12/28 07:28:44;;;;;;;4.43;4.32;;;;;;;;;;6166833;28;20057;-94
2023/12/28 07:31:46;;;;;;;4.20;4.10;;;;;;;;;;6166505;28;20062;-94
2023/12/28 07:34:48;;;;;;;5.32;5.13;;;;;;;;;;6167184;28;20061;-93
2023/12/28 07:37:50;;;;;;;4.40;4.30;;;;;;;;;;6163176;28;20116;-93
2023/12/28 07:40:52;;;;;;;4.35;4.25;;;;;;;;;;6149258;28;20058;-93
2023/12/28 07:43:55;;;;;;;5.05;4.90;;;;;;;;;;6164833;28;20030;-93
2023/12/28 07:46:58;;;;;;;4.88;4.68;;;;;;;;;;6159909;28;20053;-92
2023/12/28 07:50:00;;;;;;;5.63;5.43;;;;;;;;;;6166760;28;20651;-93
2023/12/28 07:53:02;;;;;;;4.75;4.65;;;;;;;;;;6164527;28;20041;-93
2023/12/28 07:56:04;;;;;;;5.28;5.07;;;;;;;;;;6161300;28;20434;-93
2023/12/28 07:59:09;;;;;;;4.13;4.03;;;;;;;;;;6164726;28;20050;-93
2023/12/28 08:02:10;;;;;;;4.35;4.25;;;;;;;;;;6159106;28;20100;-94
2023/12/28 08:05:12;;;;;;;4.57;4.47;;;;;;;;;;6159616;28;20370;-93
2023/12/28 08:08:14;;;;;;;5.05;4.63;;;;;;;;;;6160671;28;20051;-92
2023/12/28 08:11:15;;;;;;;4.82;4.72;;;;;;;;;;6159719;28;20043;-93
2023/12/28 08:14:17;;;;;;;4.72;4.63;;;;;;;;;;6164721;28;20050;-94
2023/12/28 08:17:19;;;;;;;10.52;4.82;;;;;;;;;;6156633;28;20077;-94
2023/12/28 08:20:20;;;;;;;3.92;3.83;;;;;;;;;;6160141;28;20121;-94
2023/12/28 08:23:22;;;;;;;5.43;5.22;;;;;;;;;;6151992;28;20058;-94
2023/12/28 08:26:24;;;;;;;4.88;4.68;;;;;;;;;;6164050;28;20512;-94
2023/12/28 08:29:27;;;;;;;5.32;5.13;;;;;;;;;;6155576;28;20043;-94
2023/12/28 08:32:28;;;;;;;4.72;4.57;;;;;;;;;;6159644;28;20062;-91
2023/12/28 08:35:30;;;;;;;4.47;4.38;;;;;;;;;;6161764;28;20062;-91
2023/12/28 08:38:32;;;;;;;4.30;4.20;;;;;;;;;;6161242;28;20418;-92
2023/12/28 08:41:34;;;;;;;3.83;3.72;;;;;;;;;;6162020;28;20047;-92
2023/12/28 08:44:36;;;;;;;4.47;4.38;;;;;;;;;;6143537;28;20073;-90
2023/12/28 08:47:38;;;;;;;4.30;4.20;;;;;;;;;;6161381;28;20066;-92
2023/12/28 08:50:40;;;;;;;4.18;4.07;;;;;;;;;;6159983;28;20050;-91
2023/12/28 08:53:42;;;;;;;8.15;4.43;;;;;;;;;;6157891;28;20410;-92
2023/12/28 08:56:44;;;;;;;5.03;4.82;;;;;;;;;;6160852;28;20054;-91
2023/12/28 08:59:47;;;;;;;4.35;4.25;;;;;;;;;;6158126;28;20057;-91
2023/12/28 09:02:49;;;;;;;4.95;4.65;;;;;;;;;;6165036;28;20034;-91
2023/12/28 09:05:50;;;;;;;4.82;4.72;;;;;;;;;;6160875;28;20043;-90
2023/12/28 09:08:53;;;;;;;4.82;4.63;;;;;;;;;;6164872;28;20047;-91
2023/12/28 09:11:55;;;;;;;6.13;5.93;;;;;;;;;;6144651;28;20074;-90
2023/12/28 09:14:57;;;;;;;4.47;4.38;;;;;;;;;;6151476;28;20043;-92
2023/12/28 09:17:58;;;;;;;4.68;4.47;;;;;;;;;;6160802;28;20111;-91
2023/12/28 09:21:01;;;;;;;4.50;4.40;;;;;;;;;;6162863;28;20046;-91
2023/12/28 09:24:03;;;;;;;5.32;5.13;;;;;;;;;;6157223;28;20050;-91
2023/12/28 09:27:05;;;;;;;5.22;5.03;;;;;;;;;;6159820;28;20462;-90
2023/12/28 09:30:07;;;;;;;21.67;5.07;;;;;;;;;;6150844;28;20478;-91
2023/12/28 09:33:09;;;;;;;4.53;4.43;;;;;;;;;;6157203;28;20049;-91
2023/12/28 09:36:15;;;;;;;5.10;4.90;;;;;;;;;;6157410;28;20043;-91
2023/12/28 09:39:17;;;;;;;5.13;4.93;;;;;;;;;;6156767;28;20084;-91
2023/12/28 09:42:39;;;;;;;5.05;4.95;;;;;;;;;;6153383;28;20042;-91
2023/12/28 09:45:41;;;;;;;4.88;4.78;;;;;;;;;;6172360;28;20051;-91
2023/12/28 09:48:43;;;;;;;4.38;4.22;;;;;;;;;;6175687;28;20054;-91
2023/12/28 09:51:46;;;;;;;3.88;3.78;;;;;;;;;;6160158;28;20046;-91
2023/12/28 09:54:47;;;;;;;4.55;4.45;;;;;;;;;;6166886;28;20053;-91
2023/12/28 09:57:49;;;;;;;5.45;5.20;;;;;;;;;;6162556;28;20552;-92
2023/12/28 10:00:51;;;;;;;4.82;4.63;;;;;;;;;;6159151;28;20055;-90
2023/12/28 10:03:52;;;;;;;5.40;5.20;;;;;;;;;;6167535;28;20043;-91
2023/12/28 10:06:54;;;;;;;8.15;4.18;;;;;;;;;;6169125;28;20049;-91
2023/12/28 10:09:56;;;;;;;5.03;4.82;;;;;;;;;;6165872;28;20190;-90
2023/12/28 10:12:58;;;;;;;4.32;4.22;;;;;;;;;;6164331;28;20041;-90
2023/12/28 10:16:00;;;;;;;4.53;4.43;;;;;;;;;;6165467;28;20053;-92
2023/12/28 10:19:03;;;;;;;4.50;4.40;;;;;;;;;;6164571;28;20051;-92
2023/12/28 10:22:05;;;;;;;10.82;5.05;;;;;;;;;;6155053;28;20039;-91
2023/12/28 10:25:07;;;;;;;4.15;4.05;;;;;;;;;;6165082;28;20612;-92
2023/12/28 10:28:09;;;;;;;19.17;4.95;;;;;;;;;;6161028;28;20042;-92
2023/12/28 10:31:11;;;;;;;4.45;4.35;;;;;;;;;;6156897;28;20054;-92
2023/12/28 10:34:14;;;;;;;5.15;4.95;;;;;;;;;;6160057;28;20045;-93
2023/12/28 10:37:18;;;;;;;4.72;4.63;;;;;;;;;;6160293;28;20037;-91
2023/12/28 10:40:21;;;;;;;4.45;4.25;;;;;;;;;;6161662;28;20248;-91
2023/12/28 10:43:23;;;;;;;4.13;4.03;;;;;;;;;;6165014;28;20039;-92
2023/12/28 10:46:29;;;;;;;4.00;3.80;;;;;;;;;;6155010;28;20578;-92
2023/12/28 10:49:33;;;;;;;5.82;5.53;;;;;;;;;;6163189;28;20572;-91
2023/12/28 10:52:36;;;;;;;6.85;5.22;;;;;;;;;;6156451;28;20038;-91
2023/12/28 10:55:45;;;;;;;4.65;4.55;;;;;;;;;;6160268;28;20145;-92
2023/12/28 10:58:49;;;;;;;4.95;4.75;;;;;;;;;;6159172;28;20047;-93
2023/12/28 11:01:51;;;;;;;8.07;5.35;;;;;;;;;;6142574;28;20086;-92
2023/12/28 11:04:53;;;;;;;5.45;5.20;;;;;;;;;;6151668;28;20045;-91
2023/12/28 11:07:57;;;;;;;5.72;5.43;;;;;;;;;;6150674;28;20078;-92
2023/12/28 11:11:04;;;;;;;3.83;3.72;;;;;;;;;;6161290;28;20140;-92
2023/12/28 11:14:07;;;;;;;4.90;4.70;;;;;;;;;;6153535;28;20050;-92
2023/12/28 11:17:09;;;;;;;8.88;4.55;;;;;;;;;;6160163;28;20035;-91
2023/12/28 11:20:12;;;;;;;5.43;5.10;;;;;;;;;;6160227;28;20352;-92
2023/12/28 11:23:14;;;;;;;4.88;4.78;;;;;;;;;;6149408;28;20414;-93
2023/12/28 11:26:22;;;;;;;4.80;4.60;;;;;;;;;;6152330;28;20523;-92
2023/12/28 11:29:24;;;;;;;5.32;5.13;;;;;;;;;;6169731;28;20035;-93
2023/12/28 11:32:26;;;;;;;5.30;4.90;;;;;;;;;;6150788;28;20047;-92
2023/12/28 11:35:36;;;;;;;6.50;6.30;;;;;;;;;;6139360;28;20062;-93
2023/12/28 11:38:40;;;;;;;4.95;4.72;;;;;;;;;;6155241;28;20070;-93
2023/12/28 11:41:42;;;;;;;3.90;3.80;;;;;;;;;;6155190;28;20035;-93
2023/12/28 11:44:44;;;;;;;4.18;4.07;;;;;;;;;;6154656;28;20511;-92
2023/12/28 11:47:46;;;;;;;14.23;5.10;;;;;;;;;;6160334;28;20046;-92
2023/12/28 11:50:48;;;;;;;4.38;4.28;;;;;;;;;;6165648;28;20081;-93
2023/12/28 11:53:50;;;;;;;4.50;4.40;;;;;;;;;;6159911;28;20038;-93
2023/12/28 11:56:52;;;;;;;4.38;4.18;;;;;;;;;;6162269;28;20051;-93
2023/12/28 11:59:58;;;;;;;4.30;4.20;;;;;;;;;;6164520;28;20128;-92
2023/12/28 12:03:00;;;;;;;4.57;4.38;;;;;;;;;;6157983;28;20052;-93
2023/12/28 12:06:02;;;;;;;4.88;4.68;;;;;;;;;;6153944;28;20087;-92
2023/12/28 12:09:05;;;;;;;3.72;3.63;;;;;;;;;;6155511;28;20513;-93
2023/12/28 12:12:06;;;;;;;4.00;3.90;;;;;;;;;;6162377;28;20408;-91
2023/12/28 12:15:09;;;;;;;6.20;4.47;;;;;;;;;;6156596;28;20115;-92
2023/12/28 12:18:11;;;;;;;5.07;4.88;;;;;;;;;;6162144;28;20038;-91
2023/12/28 12:21:12;;;;;;;5.13;4.82;;;;;;;;;;6160473;28;20043;-92
2023/12/28 12:24:14;;;;;;;4.60;4.50;;;;;;;;;;6173068;28;20053;-92
2023/12/28 12:27:17;;;;;;;4.40;4.20;;;;;;;;;;6158055;28;20054;-92
2023/12/28 12:30:19;;;;;;;3.88;3.78;;;;;;;;;;6159119;28;20046;-92
2023/12/28 12:33:22;;;;;;;4.28;4.07;;;;;;;;;;6159106;28;20047;-93
2023/12/28 12:36:24;;;;;;;4.63;4.43;;;;;;;;;;6161552;28;20043;-92
2023/12/28 12:39:25;;;;;;;3.97;3.88;;;;;;;;;;6157671;28;20058;-93
2023/12/28 12:42:27;;;;;;;4.47;4.38;;;;;;;;;;6159093;28;20051;-92
2023/12/28 12:45:29;;;;;;;5.28;5.07;;;;;;;;;;6155067;28;20058;-93
2023/12/28 12:48:32;;;;;;;4.13;4.03;;;;;;;;;;6154921;28;20047;-94
2023/12/28 12:51:33;;;;;;;5.22;4.93;;;;;;;;;;6153837;28;20047;-93
2023/12/28 12:54:35;;;;;;;4.95;4.85;;;;;;;;;;6160588;28;20443;-93
2023/12/28 12:57:38;;;;;;;5.25;5.05;;;;;;;;;;6148052;28;20785;-94
2023/12/28 13:00:40;;;;;;;5.55;5.15;;;;;;;;;;6151833;28;20090;-93
2023/12/28 13:03:42;;;;;;;4.80;4.60;;;;;;;;;;6154137;28;20397;-93
2023/12/28 13:06:48;;;;;;;5.97;4.32;;;;;;;;;;6157212;28;20039;-94
2023/12/28 13:09:50;;;;;;;5.35;5.05;;;;;;;;;;6161868;28;20051;-93
2023/12/28 13:12:54;;;;;;;5.57;5.07;;;;;;;;;;6164588;28;20046;-93
2023/12/28 13:15:56;;;;;;;4.95;4.82;;;;;;;;;;6158438;28;20039;-93
2023/12/28 13:18:58;;;;;;;6.72;5.70;;;;;;;;;;6157297;28;20404;-95
2023/12/28 13:22:00;;;;;;;4.53;4.32;;;;;;;;;;6160092;28;20271;-93
2023/12/28 13:25:02;;;;;;;4.72;4.63;;;;;;;;;;6162986;28;20046;-94
2023/12/28 13:28:04;;;;;;;5.72;5.53;;;;;;;;;;6161228;28;20129;-94
2023/12/28 13:31:07;;;;;;;4.85;4.43;;;;;;;;;;6164008;28;20705;-94
2023/12/28 13:34:09;;;;;;;4.47;4.18;;;;;;;;;;6154784;28;20100;-94
2023/12/28 13:37:11;;;;;;;4.65;4.25;;;;;;;;;;6149913;28;20109;-94
2023/12/28 13:40:13;;;;;;;4.40;4.13;;;;;;;;;;6163291;28;20050;-93
2023/12/28 13:43:20;;;;;;;5.97;5.60;;;;;;;;;;6158445;28;20053;-96
2023/12/28 13:46:22;;;;;;;4.63;4.53;;;;;;;;;;6159716;28;20043;-93
2023/12/28 13:49:25;;;;;;;3.80;3.70;;;;;;;;;;6158545;28;20038;-94
2023/12/28 13:52:27;;;;;;;3.88;3.78;;;;;;;;;;6158012;28;20049;-93
2023/12/28 13:55:29;;;;;;;4.25;4.13;;;;;;;;;;6153821;28;20197;-94
2023/12/28 13:58:31;;;;;;;3.78;3.67;;;;;;;;;;6162542;28;20501;-94
2023/12/28 14:01:33;;;;;;;3.80;3.70;;;;;;;;;;6175408;28;20042;-95
2023/12/28 14:04:35;;;;;;;4.38;4.28;;;;;;;;;;6154789;28;20058;-95
2023/12/28 14:07:37;;;;;;;4.00;3.90;;;;;;;;;;6162146;28;20039;-94
2023/12/28 14:10:39;;;;;;;4.55;4.35;;;;;;;;;;6156112;28;20962;-94
2023/12/28 14:13:41;;;;;;;3.95;3.85;;;;;;;;;;6156225;28;20400;-94
2023/12/28 14:16:43;;;;;;;13.30;4.70;;;;;;;;;;6152943;28;20045;-93
2023/12/28 14:19:47;;;;;;;4.05;3.95;;;;;;;;;;6152561;28;20039;-94
2023/12/28 14:22:49;;;;;;;4.20;4.10;;;;;;;;;;6163377;28;20508;-93
2023/12/28 14:25:53;;;;;;;4.10;4.00;;;;;;;;;;6158822;28;20050;-93
2023/12/28 14:28:55;;;;;;;4.07;3.97;;;;;;;;;;6160462;28;20066;-93
2023/12/28 14:31:57;;;;;;;4.60;4.25;;;;;;;;;;6167574;28;20051;-93
2023/12/28 14:34:59;;;;;;;4.13;4.03;;;;;;;;;;6164788;28;20185;-93
2023/12/28 14:38:01;;;;;;;3.97;3.88;;;;;;;;;;6163638;28;20050;-93
2023/12/28 14:41:03;;;;;;;4.15;4.05;;;;;;;;;;6167008;28;20055;-94
2023/12/28 14:44:05;;;;;;;4.50;4.35;;;;;;;;;;6163076;28;20451;-93
2023/12/28 14:47:07;;;;;;;3.90;3.80;;;;;;;;;;6165376;28;20322;-93
2023/12/28 14:50:09;;;;;;;4.78;4.57;;;;;;;;;;6179259;28;20413;-93
2023/12/28 14:53:11;;;;;;;4.65;4.55;;;;;;;;;;6158756;28;20067;-93
2023/12/28 14:56:13;;;;;;;4.45;4.35;;;;;;;;;;6161127;28;20127;-94
2023/12/28 14:59:15;;;;;;;4.28;4.18;;;;;;;;;;6158459;28;20531;-93
2023/12/28 15:02:16;;;;;;;3.92;3.80;;;;;;;;;;6163816;28;20507;-94
2023/12/28 15:05:18;;;;;;;4.30;3.97;;;;;;;;;;6160264;28;20131;-93
2023/12/28 15:08:23;;;;;;;4.38;4.25;;;;;;;;;;6162006;28;20051;-93
2023/12/28 15:11:25;;;;;;;4.25;4.15;;;;;;;;;;6164347;28;20054;-93
2023/12/28 15:14:49;;;;;;;6.47;4.78;;;;;;;;;;6154926;28;20039;-92
2023/12/28 15:17:51;;;;;;;4.68;4.47;;;;;;;;;;6159573;28;20049;-93
2023/12/28 15:20:53;;;;;;;5.55;5.35;;;;;;;;;;6149004;28;20038;-93
2023/12/28 15:23:55;;;;;;;4.53;4.43;;;;;;;;;;6157217;28;20047;-92
2023/12/28 15:26:57;;;;;;;4.35;4.25;;;;;;;;;;6152510;28;20489;-93
2023/12/28 15:29:58;;;;;;;12.05;4.70;;;;;;;;;;6171896;28;20058;-93
2023/12/28 15:33:00;;;;;;;4.88;4.78;;;;;;;;;;6157363;28;20046;-93
2023/12/28 15:36:02;;;;;;;3.88;3.78;;;;;;;;;;6178816;28;20049;-94
2023/12/28 15:39:05;;;;;;;5.10;4.90;;;;;;;;;;6161678;28;20042;-93
2023/12/28 15:42:07;;;;;;;5.10;4.80;;;;;;;;;;6153565;28;20027;-93
2023/12/28 15:45:09;;;;;;;4.32;4.13;;;;;;;;;;6159424;28;20412;-93
2023/12/28 15:48:11;;;;;;;4.28;4.18;;;;;;;;;;6162686;28;20055;-94
2023/12/28 15:51:12;;;;;;;4.20;4.10;;;;;;;;;;6164004;28;20027;-93
2023/12/28 15:54:14;;;;;;;4.50;4.40;;;;;;;;;;6168208;28;20061;-93
2023/12/28 15:57:16;;;;;;;4.78;4.65;;;;;;;;;;6170897;28;20481;-93
2023/12/28 16:00:18;;;;;;;4.95;4.65;;;;;;;;;;6163109;28;20053;-93
2023/12/28 16:03:23;;;;;;;4.35;4.25;;;;;;;;;;6164941;28;20039;-92
2023/12/28 16:06:25;;;;;;;3.97;3.88;;;;;;;;;;6165891;28;20502;-93
2023/12/28 16:09:26;;;;;;;3.85;3.75;;;;;;;;;;6166765;28;20050;-93
2023/12/28 16:12:28;;;;;;;5.00;4.80;;;;;;;;;;6170060;28;20365;-93
2023/12/28 16:15:30;;;;;;;5.20;5.00;;;;;;;;;;6166281;28;20630;-94
2023/12/28 16:18:33;;;;;;;5.20;5.00;;;;;;;;;;6146672;28;20058;-92
2023/12/28 16:21:36;;;;;;;4.50;4.40;;;;;;;;;;6167155;28;20039;-93
2023/12/28 16:24:38;;;;;;;4.60;4.50;;;;;;;;;;6159065;28;20189;-92
2023/12/28 16:27:39;;;;;;;4.80;4.70;;;;;;;;;;6161664;28;20035;-93
2023/12/28 16:30:41;;;;;;;4.57;4.47;;;;;;;;;;6158381;28;20587;-93
2023/12/28 16:33:43;;;;;;;4.25;4.05;;;;;;;;;;6142117;28;20233;-93
2023/12/28 16:36:45;;;;;;;4.15;4.05;;;;;;;;;;6151544;28;20452;-93
2023/12/28 16:39:47;;;;;;;4.35;4.15;;;;;;;;;;6157367;28;20046;-92
2023/12/28 16:42:50;;;;;;;5.22;5.03;;;;;;;;;;6155986;28;20468;-92
2023/12/28 16:45:52;;;;;;;4.28;4.18;;;;;;;;;;6157194;28;20030;-92
2023/12/28 16:48:54;;;;;;;4.47;4.38;;;;;;;;;;6156683;28;20046;-92
2023/12/28 16:51:56;;;;;;;4.38;4.28;;;;;;;;;;6159713;28;20095;-93
2023/12/28 16:54:57;;;;;;;4.85;4.55;;;;;;;;;;6157911;28;20049;-93
2023/12/28 16:57:59;;;;;;;5.20;4.70;;;;;;;;;;6161364;28;20690;-92
2023/12/28 17:01:02;;;;;;;4.15;3.97;;;;;;;;;;6145978;28;20039;-92
2023/12/28 17:04:04;;;;;;;4.97;4.78;;;;;;;;;;6140982;28;20034;-92
2023/12/28 17:07:07;;;;;;;4.53;4.43;;;;;;;;;;6151497;28;20505;-92
2023/12/28 17:10:09;;;;;;;6.95;6.65;;;;;;;;;;6157827;28;20042;-93
2023/12/28 17:13:13;;;;;;;4.30;4.10;;;;;;;;;;6153621;28;20042;-92
2023/12/28 17:16:15;;;;;;;5.45;5.22;;;;;;;;;;6157350;28;20198;-92
2023/12/28 17:19:17;;;;;;;8.68;4.93;;;;;;;;;;6153165;28;20075;-92
2023/12/28 17:22:24;;;;;;;5.60;5.38;;;;;;;;;;6152197;28;20622;-93
2023/12/28 17:26:05;;;;;;;5.20;5.05;;;;;;;;;;6147282;28;20857;-92
2023/12/28 17:29:07;;;;;;;;;;;;;;;;;;6108641;29;20044;-92
2023/12/28 17:32:12;;;;;;;5.18;4.97;;;;;;;;;;6105337;29;20325;-92
2023/12/28 17:35:14;;;;;;;4.40;4.30;;;;;;;;;;6096687;29;20064;-93
2023/12/28 17:38:16;;;;;;;4.25;4.15;;;;;;;;;;6092119;29;20085;-92
2023/12/28 17:41:21;;;;;;;5.03;4.78;;;;;;;;;;6118719;29;20158;-92
2023/12/28 17:44:28;;;;;;;4.15;4.05;;;;;;;;;;6108815;29;20111;-93
2023/12/28 17:47:43;;;;;;;3.90;3.80;;;;;;;;;;6100273;29;20538;-92
2023/12/28 17:50:45;;;;;;;5.93;5.72;;;;;;;;;;6112284;29;20126;-93
2023/12/28 17:53:47;;;;;;;4.53;4.43;;;;;;;;;;6101494;29;20096;-93
2023/12/28 17:56:49;;;;;;;5.30;5.10;;;;;;;;;;6108890;29;20052;-93
2023/12/28 17:59:51;;;;;;;4.90;4.80;;;;;;;;;;6124661;28;20079;-95
2023/12/28 18:02:52;;;;;;;5.32;5.13;;;;;;;;;;6147873;28;20038;-95
2023/12/28 18:05:54;;;;;;;20.02;5.40;;;;;;;;;;6150202;28;20122;-95
2023/12/28 18:08:56;;;;;;;5.07;4.85;;;;;;;;;;6161498;28;20588;-95
2023/12/28 18:11:58;;;;;;;4.50;4.40;;;;;;;;;;6158721;28;20046;-95
2023/12/28 18:15:00;;;;;;;4.82;4.63;;;;;;;;;;6165098;28;20039;-95